createdAt,value
2022-08-03T00:00:28.274Z,1010
2022-08-03T00:01:37.446Z,1010
2022-08-03T00:02:46.618Z,1010
2022-08-03T00:03:55.797Z,1010
2022-08-03T00:05:03.989Z,1010
2022-08-03T00:06:12.174Z,1010
2022-08-03T00:07:20.367Z,1010
2022-08-03T00:08:28.563Z,1010
2022-08-03T00:09:37.723Z,1010
2022-08-03T00:10:46.906Z,1010
2022-08-03T00:11:56.062Z,1010
2022-08-03T00:13:05.245Z,1010
2022-08-03T00:14:14.419Z,1010
2022-08-03T00:15:22.609Z,1010
2022-08-03T00:16:31.780Z,1010
2022-08-03T00:17:40.955Z,1009.9
2022-08-03T00:18:50.137Z,1009.9
2022-08-03T00:19:59.304Z,1009.9
2022-08-03T00:21:08.478Z,1009.9
2022-08-03T00:22:17.647Z,1009.9
2022-08-03T00:23:26.816Z,1009.9
2022-08-03T00:24:36.002Z,1009.9
2022-08-03T00:25:45.162Z,1009.8
2022-08-03T00:26:54.337Z,1009.9
2022-08-03T00:28:03.512Z,1009.8
2022-08-03T00:29:12.675Z,1009.8
2022-08-03T00:30:20.878Z,1009.8
2022-08-03T00:31:30.054Z,1009.8
2022-08-03T00:32:39.229Z,1009.8
2022-08-03T00:33:48.384Z,1009.8
2022-08-03T00:34:57.568Z,1009.8
2022-08-03T00:36:06.730Z,1009.8
2022-08-03T00:37:15.918Z,1009.8
2022-08-03T00:38:25.081Z,1009.8
2022-08-03T00:39:34.250Z,1009.8
2022-08-03T00:40:43.423Z,1009.8
2022-08-03T00:41:52.604Z,1009.8
2022-08-03T00:43:01.769Z,1009.8
2022-08-03T00:44:10.941Z,1009.8
2022-08-03T00:45:19.131Z,1009.8
2022-08-03T00:46:28.311Z,1009.8
2022-08-03T00:47:37.495Z,1009.8
2022-08-03T00:48:46.645Z,1009.8
2022-08-03T00:49:55.813Z,1009.8
2022-08-03T00:51:05.006Z,1009.9
2022-08-03T00:52:14.171Z,1009.8
2022-08-03T00:53:23.338Z,1009.8
2022-08-03T00:54:32.517Z,1009.8
2022-08-03T00:55:41.680Z,1009.8
2022-08-03T00:56:50.850Z,1009.8
2022-08-03T00:58:00.032Z,1009.8
2022-08-03T00:59:09.199Z,1009.8
2022-08-03T01:00:17.383Z,1009.8
2022-08-03T01:01:26.558Z,1009.8
2022-08-03T01:02:35.744Z,1009.8
2022-08-03T01:03:44.916Z,1009.8
2022-08-03T01:04:54.088Z,1009.8
2022-08-03T01:06:03.257Z,1009.9
2022-08-03T01:07:12.420Z,1009.8
2022-08-03T01:08:21.610Z,1009.8
2022-08-03T01:09:30.774Z,1009.8
2022-08-03T01:10:39.961Z,1009.8
2022-08-03T01:11:49.114Z,1009.8
2022-08-03T01:12:58.302Z,1009.7
2022-08-03T01:14:07.470Z,1009.8
2022-08-03T01:15:15.657Z,1009.7
2022-08-03T01:16:24.832Z,1009.7
2022-08-03T01:17:33.998Z,1009.7
2022-08-03T01:18:43.164Z,1009.7
2022-08-03T01:19:52.336Z,1009.7
2022-08-03T01:21:01.514Z,1009.7
2022-08-03T01:22:10.685Z,1009.7
2022-08-03T01:23:19.880Z,1009.7
2022-08-03T01:24:29.036Z,1009.7
2022-08-03T01:25:38.214Z,1009.7
2022-08-03T01:26:47.385Z,1009.7
2022-08-03T01:27:56.556Z,1009.7
2022-08-03T01:29:05.726Z,1009.7
2022-08-03T01:30:13.915Z,1009.7
2022-08-03T01:31:23.093Z,1009.7
2022-08-03T01:32:32.263Z,1009.7
2022-08-03T01:33:41.436Z,1009.7
2022-08-03T01:34:50.606Z,1009.7
2022-08-03T01:35:59.771Z,1009.7
2022-08-03T01:37:08.942Z,1009.6
2022-08-03T01:38:18.128Z,1009.7
2022-08-03T01:39:26.319Z,1009.7
2022-08-03T01:40:34.505Z,1009.6
2022-08-03T01:41:43.675Z,1009.6
2022-08-03T01:42:52.845Z,1009.7
2022-08-03T01:44:01.048Z,1009.6
2022-08-03T01:45:09.223Z,1009.6
2022-08-03T01:46:18.404Z,1009.6
2022-08-03T01:47:27.578Z,1009.6
2022-08-03T01:48:36.769Z,1009.6
2022-08-03T01:49:45.929Z,1009.6
2022-08-03T01:50:55.089Z,1009.7
2022-08-03T01:52:04.277Z,1009.7
2022-08-03T01:53:13.437Z,1009.7
2022-08-03T01:54:22.614Z,1009.7
2022-08-03T01:55:31.794Z,1009.7
2022-08-03T01:56:40.965Z,1009.7
2022-08-03T01:57:50.131Z,1009.7
2022-08-03T01:58:59.301Z,1009.7
2022-08-03T02:00:08.485Z,1009.6
2022-08-03T02:01:16.657Z,1009.6
2022-08-03T02:02:25.840Z,1009.6
2022-08-03T02:03:35.011Z,1009.6
2022-08-03T02:04:44.184Z,1009.6
2022-08-03T02:05:53.358Z,1009.6
2022-08-03T02:07:02.521Z,1009.6
2022-08-03T02:08:11.704Z,1009.6
2022-08-03T02:09:20.873Z,1009.7
2022-08-03T02:10:30.043Z,1009.6
2022-08-03T02:11:39.221Z,1009.6
2022-08-03T02:12:48.401Z,1009.6
2022-08-03T02:13:56.579Z,1009.7
2022-08-03T02:15:04.795Z,1009.6
2022-08-03T02:16:13.943Z,1009.6
2022-08-03T02:17:23.114Z,1009.6
2022-08-03T02:18:32.302Z,1009.7
2022-08-03T02:19:40.488Z,1009.7
2022-08-03T02:20:48.670Z,1009.7
2022-08-03T02:21:57.845Z,1009.7
2022-08-03T02:23:07.021Z,1009.7
2022-08-03T02:24:16.192Z,1009.7
2022-08-03T02:25:25.361Z,1009.7
2022-08-03T02:26:34.534Z,1009.7
2022-08-03T02:27:43.704Z,1009.7
2022-08-03T02:28:52.877Z,1009.7
2022-08-03T02:30:02.059Z,1009.7
2022-08-03T02:31:11.227Z,1009.6
2022-08-03T02:32:20.411Z,1009.7
2022-08-03T02:33:29.576Z,1009.7
2022-08-03T02:34:38.748Z,1009.6
2022-08-03T02:35:46.933Z,1009.7
2022-08-03T02:36:56.100Z,1009.7
2022-08-03T02:38:05.285Z,1009.7
2022-08-03T02:39:14.458Z,1009.6
2022-08-03T02:40:23.628Z,1009.6
2022-08-03T02:41:32.815Z,1009.6
2022-08-03T02:42:41.969Z,1009.6
2022-08-03T02:43:50.171Z,1009.6
2022-08-03T02:44:58.351Z,1009.6
2022-08-03T02:46:07.539Z,1009.6
2022-08-03T02:47:16.703Z,1009.6
2022-08-03T02:48:24.883Z,1009.6
2022-08-03T02:49:33.078Z,1009.6
2022-08-03T02:50:42.257Z,1009.6
2022-08-03T02:51:51.426Z,1009.6
2022-08-03T02:53:00.599Z,1009.5
2022-08-03T02:54:09.765Z,1009.5
2022-08-03T02:55:18.945Z,1009.5
2022-08-03T02:56:28.125Z,1009.6
2022-08-03T02:57:37.304Z,1009.6
2022-08-03T02:58:46.462Z,1009.5
2022-08-03T02:59:55.634Z,1009.5
2022-08-03T03:01:04.815Z,1009.5
2022-08-03T03:02:13.983Z,1009.6
2022-08-03T03:03:23.156Z,1009.5
2022-08-03T03:04:31.353Z,1009.5
2022-08-03T03:05:40.519Z,1009.4
2022-08-03T03:06:49.719Z,1009.5
2022-08-03T03:07:58.853Z,1009.5
2022-08-03T03:09:08.033Z,1009.5
2022-08-03T03:10:17.214Z,1009.5
2022-08-03T03:11:26.375Z,1009.5
2022-08-03T03:12:34.578Z,1009.5
2022-08-03T03:13:42.765Z,1009.5
2022-08-03T03:14:51.934Z,1009.5
2022-08-03T03:16:01.103Z,1009.5
2022-08-03T03:17:10.287Z,1009.5
2022-08-03T03:18:19.458Z,1009.5
2022-08-03T03:19:27.663Z,1009.4
2022-08-03T03:20:35.841Z,1009.5
2022-08-03T03:21:45.001Z,1009.5
2022-08-03T03:22:54.177Z,1009.5
2022-08-03T03:24:03.342Z,1009.5
2022-08-03T03:25:12.526Z,1009.5
2022-08-03T03:26:21.694Z,1009.5
2022-08-03T03:27:30.865Z,1009.5
2022-08-03T03:28:40.063Z,1009.5
2022-08-03T03:29:49.212Z,1009.5
2022-08-03T03:30:58.389Z,1009.5
2022-08-03T03:32:07.562Z,1009.5
2022-08-03T03:33:16.727Z,1009.5
2022-08-03T03:34:25.913Z,1009.5
2022-08-03T03:35:34.099Z,1009.5
2022-08-03T03:36:43.263Z,1009.5
2022-08-03T03:37:52.442Z,1009.5
2022-08-03T03:39:01.611Z,1009.5
2022-08-03T03:40:10.792Z,1009.5
2022-08-03T03:41:19.954Z,1009.5
2022-08-03T03:42:29.128Z,1009.5
2022-08-03T03:43:38.326Z,1009.5
2022-08-03T03:44:47.473Z,1009.5
2022-08-03T03:45:56.645Z,1009.5
2022-08-03T03:47:05.826Z,1009.5
2022-08-03T03:48:15.001Z,1009.6
2022-08-03T03:49:24.163Z,1009.6
2022-08-03T03:50:33.341Z,1009.6
2022-08-03T03:51:41.521Z,1009.6
2022-08-03T03:52:50.715Z,1009.6
2022-08-03T03:53:58.886Z,1009.6
2022-08-03T03:55:07.079Z,1009.6
2022-08-03T03:56:16.258Z,1009.6
2022-08-03T03:57:24.441Z,1009.6
2022-08-03T03:58:32.636Z,1009.6
2022-08-03T03:59:41.805Z,1009.6
2022-08-03T04:00:50.973Z,1009.6
2022-08-03T04:02:00.165Z,1009.6
2022-08-03T04:03:09.329Z,1009.6
2022-08-03T04:04:18.500Z,1009.6
2022-08-03T04:05:27.672Z,1009.6
2022-08-03T04:06:35.865Z,1009.6
2022-08-03T04:07:45.038Z,1009.6
2022-08-03T04:08:54.213Z,1009.6
2022-08-03T04:10:03.386Z,1009.6
2022-08-03T04:11:12.562Z,1009.6
2022-08-03T04:12:21.730Z,1009.6
2022-08-03T04:13:30.911Z,1009.7
2022-08-03T04:14:40.070Z,1009.6
2022-08-03T04:15:49.240Z,1009.7
2022-08-03T04:16:58.412Z,1009.7
2022-08-03T04:18:07.584Z,1009.7
2022-08-03T04:19:16.776Z,1009.6
2022-08-03T04:20:25.935Z,1009.7
2022-08-03T04:21:35.108Z,1009.7
2022-08-03T04:22:43.294Z,1009.7
2022-08-03T04:23:52.501Z,1009.7
2022-08-03T04:25:01.643Z,1009.7
2022-08-03T04:26:10.815Z,1009.7
2022-08-03T04:27:19.988Z,1009.7
2022-08-03T04:28:29.172Z,1009.7
2022-08-03T04:29:38.331Z,1009.7
2022-08-03T04:30:47.501Z,1009.7
2022-08-03T04:31:56.672Z,1009.7
2022-08-03T04:33:05.854Z,1009.7
2022-08-03T04:34:15.023Z,1009.6
2022-08-03T04:35:24.209Z,1009.6
2022-08-03T04:36:33.379Z,1009.7
2022-08-03T04:37:41.562Z,1009.6
2022-08-03T04:38:50.731Z,1009.7
2022-08-03T04:39:59.909Z,1009.7
2022-08-03T04:41:09.081Z,1009.7
2022-08-03T04:42:18.239Z,1009.7
2022-08-03T04:44:36.600Z,1009.7
2022-08-03T04:45:45.772Z,1009.7
2022-08-03T04:46:54.938Z,1009.7
2022-08-03T04:48:04.110Z,1009.7
2022-08-03T04:49:13.292Z,1009.7
2022-08-03T04:50:22.459Z,1009.6
2022-08-03T04:51:31.635Z,1009.6
2022-08-03T04:52:40.800Z,1009.6
2022-08-03T04:53:48.988Z,1009.7
2022-08-03T04:54:58.163Z,1009.7
2022-08-03T04:56:07.346Z,1009.7
2022-08-03T04:57:16.513Z,1009.7
2022-08-03T04:58:25.676Z,1009.7
2022-08-03T04:59:34.857Z,1009.7
2022-08-03T05:00:44.031Z,1009.7
2022-08-03T05:01:53.209Z,1009.8
2022-08-03T05:03:02.375Z,1009.8
2022-08-03T05:04:11.551Z,1009.8
2022-08-03T05:05:20.719Z,1009.8
2022-08-03T05:06:29.894Z,1009.8
2022-08-03T05:07:39.070Z,1009.8
2022-08-03T05:08:47.245Z,1009.8
2022-08-03T05:09:56.425Z,1009.8
2022-08-03T05:11:05.591Z,1009.8
2022-08-03T05:12:14.769Z,1009.7
2022-08-03T05:13:23.944Z,1009.8
2022-08-03T05:14:33.123Z,1009.8
2022-08-03T05:15:42.285Z,1009.8
2022-08-03T05:16:51.475Z,1009.8
2022-08-03T05:18:00.640Z,1009.8
2022-08-03T05:19:09.800Z,1009.8
2022-08-03T05:20:18.981Z,1009.8
2022-08-03T05:21:28.151Z,1009.8
2022-08-03T05:22:37.321Z,1009.8
2022-08-03T05:23:45.519Z,1009.8
2022-08-03T05:24:54.690Z,1009.8
2022-08-03T05:26:03.863Z,1009.8
2022-08-03T05:27:13.027Z,1009.7
2022-08-03T05:28:22.202Z,1009.8
2022-08-03T05:29:31.380Z,1009.8
2022-08-03T05:30:40.558Z,1009.8
2022-08-03T05:31:49.712Z,1009.8
2022-08-03T05:32:58.895Z,1009.8
2022-08-03T05:34:08.083Z,1009.7
2022-08-03T05:35:17.236Z,1009.8
2022-08-03T05:36:26.405Z,1009.8
2022-08-03T05:37:35.577Z,1009.8
2022-08-03T05:38:43.767Z,1009.8
2022-08-03T05:39:52.935Z,1009.8
2022-08-03T05:41:02.109Z,1009.8
2022-08-03T05:42:11.290Z,1009.8
2022-08-03T05:43:20.460Z,1009.9
2022-08-03T05:44:29.630Z,1009.8
2022-08-03T05:45:38.797Z,1009.8
2022-08-03T05:46:47.968Z,1009.8
2022-08-03T05:47:57.149Z,1009.8
2022-08-03T05:49:06.317Z,1009.8
2022-08-03T05:50:15.481Z,1009.8
2022-08-03T05:51:24.659Z,1009.8
2022-08-03T05:52:33.838Z,1009.8
2022-08-03T05:53:42.028Z,1009.8
2022-08-03T05:54:51.201Z,1009.8
2022-08-03T05:56:00.375Z,1009.8
2022-08-03T05:57:09.560Z,1009.7
2022-08-03T05:58:18.713Z,1009.8
2022-08-03T05:59:27.915Z,1009.8
2022-08-03T06:00:37.057Z,1009.7
2022-08-03T06:01:46.244Z,1009.8
2022-08-03T06:02:55.411Z,1009.7
2022-08-03T06:04:04.596Z,1009.7
2022-08-03T06:05:13.752Z,1009.8
2022-08-03T06:06:22.919Z,1009.8
2022-08-03T06:07:32.099Z,1009.8
2022-08-03T06:08:40.293Z,1009.8
2022-08-03T06:09:49.456Z,1009.8
2022-08-03T06:10:58.635Z,1009.8
2022-08-03T06:12:07.809Z,1009.8
2022-08-03T06:13:16.974Z,1009.8
2022-08-03T06:14:26.144Z,1009.8
2022-08-03T06:15:35.316Z,1009.7
2022-08-03T06:16:44.503Z,1009.8
2022-08-03T06:17:53.660Z,1009.7
2022-08-03T06:19:02.838Z,1009.7
2022-08-03T06:20:12.003Z,1009.8
2022-08-03T06:21:21.189Z,1009.8
2022-08-03T06:22:30.356Z,1009.8
2022-08-03T06:23:38.542Z,1009.8
2022-08-03T06:24:47.721Z,1009.8
2022-08-03T06:25:56.890Z,1009.7
2022-08-03T06:27:06.062Z,1009.7
2022-08-03T06:29:24.439Z,1009.7
2022-08-03T06:30:33.575Z,1009.8
2022-08-03T06:31:42.763Z,1009.8
2022-08-03T06:32:51.927Z,1009.7
2022-08-03T06:35:10.269Z,1009.8
2022-08-03T06:36:19.437Z,1009.8
2022-08-03T06:37:28.618Z,1009.7
2022-08-03T06:38:36.799Z,1009.8
2022-08-03T06:39:45.977Z,1009.8
2022-08-03T06:40:55.150Z,1009.8
2022-08-03T06:42:04.371Z,1009.7
2022-08-03T06:43:13.489Z,1009.7
2022-08-03T06:44:22.656Z,1009.8
2022-08-03T06:45:31.858Z,1009.8
2022-08-03T06:46:40.029Z,1009.7
2022-08-03T06:47:48.217Z,1009.8
2022-08-03T06:48:57.400Z,1009.8
2022-08-03T06:50:05.583Z,1009.8
2022-08-03T06:51:13.772Z,1009.7
2022-08-03T06:52:22.938Z,1009.8
2022-08-03T06:53:32.125Z,1009.8
2022-08-03T06:54:41.300Z,1009.8
2022-08-03T06:55:50.461Z,1009.8
2022-08-03T06:56:59.632Z,1009.8
2022-08-03T06:58:08.802Z,1009.8
2022-08-03T06:59:17.974Z,1009.8
2022-08-03T07:00:27.159Z,1009.8
2022-08-03T07:01:36.346Z,1009.8
2022-08-03T07:02:45.494Z,1009.9
2022-08-03T07:03:54.666Z,1009.8
2022-08-03T07:05:03.837Z,1009.9
2022-08-03T07:06:12.028Z,1009.8
2022-08-03T07:07:21.208Z,1009.9
2022-08-03T07:08:30.372Z,1009.9
2022-08-03T07:09:39.539Z,1009.9
2022-08-03T07:10:48.734Z,1009.9
2022-08-03T07:11:57.892Z,1009.9
2022-08-03T07:13:07.087Z,1009.9
2022-08-03T07:14:16.248Z,1009.9
2022-08-03T07:15:25.421Z,1009.9
2022-08-03T07:16:34.580Z,1009.9
2022-08-03T07:17:43.756Z,1009.9
2022-08-03T07:18:52.919Z,1009.9
2022-08-03T07:20:02.091Z,1009.9
2022-08-03T07:21:10.285Z,1009.9
2022-08-03T07:22:19.459Z,1009.9
2022-08-03T07:23:28.631Z,1009.9
2022-08-03T07:24:37.803Z,1010
2022-08-03T07:25:46.988Z,1009.9
2022-08-03T07:26:56.147Z,1010
2022-08-03T07:28:05.328Z,1010
2022-08-03T07:29:14.498Z,1009.9
2022-08-03T07:30:23.671Z,1010
2022-08-03T07:31:32.853Z,1010
2022-08-03T07:32:42.019Z,1010
2022-08-03T07:33:51.190Z,1010
2022-08-03T07:35:00.374Z,1010
2022-08-03T07:36:08.561Z,1009.9
2022-08-03T07:37:16.735Z,1009.9
2022-08-03T07:38:24.931Z,1010
2022-08-03T07:39:33.122Z,1009.9
2022-08-03T07:40:42.294Z,1010
2022-08-03T07:41:51.478Z,1010
2022-08-03T07:43:00.642Z,1009.9
2022-08-03T07:44:09.831Z,1009.9
2022-08-03T07:45:18.979Z,1009.9
2022-08-03T07:46:28.160Z,1009.9
2022-08-03T07:47:37.334Z,1009.9
2022-08-03T07:48:46.502Z,1009.9
2022-08-03T07:49:55.670Z,1009.9
2022-08-03T07:51:04.852Z,1009.9
2022-08-03T07:52:14.023Z,1009.9
2022-08-03T07:53:23.199Z,1009.9
2022-08-03T07:54:31.379Z,1009.9
2022-08-03T07:55:40.556Z,1009.9
2022-08-03T07:56:49.721Z,1010
2022-08-03T07:57:57.918Z,1009.9
2022-08-03T07:59:07.093Z,1009.9
2022-08-03T08:00:16.259Z,1009.9
2022-08-03T08:01:25.438Z,1010
2022-08-03T08:02:33.639Z,1009.9
2022-08-03T08:03:41.819Z,1009.9
2022-08-03T08:04:50.991Z,1010
2022-08-03T08:06:00.188Z,1010
2022-08-03T08:07:09.337Z,1009.9
2022-08-03T08:08:18.522Z,1010
2022-08-03T08:09:27.680Z,1010
2022-08-03T08:10:36.853Z,1010
2022-08-03T08:11:46.029Z,1010
2022-08-03T08:12:55.201Z,1009.9
2022-08-03T08:14:04.377Z,1010
2022-08-03T08:15:13.546Z,1009.9
2022-08-03T08:16:22.717Z,1010
2022-08-03T08:17:31.892Z,1009.9
2022-08-03T08:18:41.074Z,1010
2022-08-03T08:19:49.255Z,1009.9
2022-08-03T08:20:57.449Z,1009.9
2022-08-03T08:22:06.622Z,1009.9
2022-08-03T08:23:15.802Z,1009.9
2022-08-03T08:24:24.968Z,1009.9
2022-08-03T08:25:34.137Z,1010
2022-08-03T08:26:43.310Z,1009.9
2022-08-03T08:27:52.482Z,1009.9
2022-08-03T08:29:01.675Z,1009.9
2022-08-03T08:30:10.834Z,1009.9
2022-08-03T08:31:20.005Z,1010
2022-08-03T08:32:29.174Z,1010
2022-08-03T08:33:38.352Z,1009.9
2022-08-03T08:34:47.520Z,1009.9
2022-08-03T08:35:55.708Z,1010
2022-08-03T08:37:04.882Z,1009.9
2022-08-03T08:38:14.051Z,1009.9
2022-08-03T08:39:23.228Z,1009.8
2022-08-03T08:40:32.416Z,1009.9
2022-08-03T08:41:41.570Z,1009.8
2022-08-03T08:42:50.742Z,1009.9
2022-08-03T08:43:58.945Z,1009.9
2022-08-03T08:45:07.132Z,1009.9
2022-08-03T08:46:16.302Z,1009.9
2022-08-03T08:47:24.490Z,1009.9
2022-08-03T08:48:32.682Z,1009.9
2022-08-03T08:49:41.853Z,1009.9
2022-08-03T08:50:51.019Z,1009.8
2022-08-03T08:52:00.208Z,1009.9
2022-08-03T08:53:09.367Z,1009.9
2022-08-03T08:54:18.550Z,1010
2022-08-03T08:55:27.719Z,1010
2022-08-03T08:56:36.882Z,1009.9
2022-08-03T08:57:46.074Z,1010
2022-08-03T08:58:55.229Z,1010
2022-08-03T09:00:04.407Z,1009.9
2022-08-03T09:01:13.579Z,1010
2022-08-03T09:02:22.759Z,1010
2022-08-03T09:03:30.943Z,1010
2022-08-03T09:04:40.124Z,1010
2022-08-03T09:05:49.288Z,1009.9
2022-08-03T09:06:58.465Z,1010
2022-08-03T09:08:07.648Z,1010
2022-08-03T09:09:16.803Z,1009.9
2022-08-03T09:10:25.978Z,1009.9
2022-08-03T09:11:35.155Z,1009.9
2022-08-03T09:12:44.314Z,1009.9
2022-08-03T09:13:53.492Z,1009.9
2022-08-03T09:15:02.682Z,1009.9
2022-08-03T09:16:11.845Z,1009.9
2022-08-03T09:17:21.016Z,1009.9
2022-08-03T09:18:29.208Z,1009.9
2022-08-03T09:19:38.374Z,1009.9
2022-08-03T09:20:47.554Z,1009.9
2022-08-03T09:21:56.726Z,1009.9
2022-08-03T09:23:05.908Z,1009.9
2022-08-03T09:24:15.072Z,1009.9
2022-08-03T09:25:24.238Z,1009.9
2022-08-03T09:26:33.429Z,1009.9
2022-08-03T09:27:42.586Z,1009.9
2022-08-03T09:28:51.753Z,1009.9
2022-08-03T09:30:00.936Z,1009.9
2022-08-03T09:31:10.103Z,1009.9
2022-08-03T09:32:19.310Z,1009.9
2022-08-03T09:33:27.460Z,1009.9
2022-08-03T09:34:36.639Z,1009.9
2022-08-03T09:35:45.813Z,1009.9
2022-08-03T09:36:55.003Z,1009.9
2022-08-03T09:38:04.179Z,1009.9
2022-08-03T09:39:13.355Z,1009.9
2022-08-03T09:40:22.512Z,1009.9
2022-08-03T09:41:31.678Z,1009.9
2022-08-03T09:42:40.850Z,1009.9
2022-08-03T09:43:50.019Z,1009.9
2022-08-03T09:44:59.190Z,1010
2022-08-03T09:46:08.376Z,1009.9
2022-08-03T09:47:16.568Z,1009.9
2022-08-03T09:48:24.738Z,1009.9
2022-08-03T09:49:33.918Z,1009.9
2022-08-03T09:50:43.089Z,1009.9
2022-08-03T09:51:52.281Z,1009.9
2022-08-03T09:53:01.441Z,1009.8
2022-08-03T09:54:10.611Z,1009.8
2022-08-03T09:55:19.775Z,1009.8
2022-08-03T09:56:27.979Z,1009.8
2022-08-03T09:57:36.180Z,1009.9
2022-08-03T09:58:45.348Z,1009.9
2022-08-03T09:59:54.503Z,1009.9
2022-08-03T10:01:03.713Z,1009.9
2022-08-03T10:02:12.854Z,1009.9
2022-08-03T10:03:22.027Z,1009.9
2022-08-03T10:04:31.200Z,1009.9
2022-08-03T10:05:40.379Z,1009.9
2022-08-03T10:06:49.559Z,1009.9
2022-08-03T10:07:58.736Z,1009.8
2022-08-03T10:09:07.888Z,1009.9
2022-08-03T10:10:17.064Z,1009.9
2022-08-03T10:11:26.235Z,1009.9
2022-08-03T10:12:34.436Z,1009.9
2022-08-03T10:13:43.600Z,1009.9
2022-08-03T10:14:52.770Z,1009.9
2022-08-03T10:16:01.947Z,1009.9
2022-08-03T10:17:11.115Z,1009.9
2022-08-03T10:18:20.283Z,1009.9
2022-08-03T10:19:29.471Z,1009.8
2022-08-03T10:20:38.629Z,1009.8
2022-08-03T10:21:47.805Z,1009.9
2022-08-03T10:22:56.969Z,1009.9
2022-08-03T10:24:06.145Z,1009.9
2022-08-03T10:25:15.329Z,1009.9
2022-08-03T10:26:24.495Z,1010
2022-08-03T10:27:32.687Z,1009.9
2022-08-03T10:28:41.859Z,1010
2022-08-03T10:29:51.027Z,1009.9
2022-08-03T10:31:00.197Z,1009.9
2022-08-03T10:32:09.375Z,1009.9
2022-08-03T10:33:18.548Z,1009.9
2022-08-03T10:34:27.731Z,1009.9
2022-08-03T10:35:36.890Z,1009.9
2022-08-03T10:36:46.069Z,1009.9
2022-08-03T10:37:55.243Z,1009.9
2022-08-03T10:39:04.468Z,1009.8
2022-08-03T10:40:13.575Z,1009.8
2022-08-03T10:41:22.759Z,1009.8
2022-08-03T10:42:31.927Z,1009.8
2022-08-03T10:43:40.112Z,1009.8
2022-08-03T10:44:49.297Z,1009.9
2022-08-03T10:45:58.467Z,1009.8
2022-08-03T10:47:07.647Z,1009.8
2022-08-03T10:48:16.810Z,1009.8
2022-08-03T10:49:25.981Z,1009.8
2022-08-03T10:50:35.175Z,1009.7
2022-08-03T10:52:53.502Z,1009.8
2022-08-03T10:54:02.670Z,1009.8
2022-08-03T10:55:11.838Z,1009.7
2022-08-03T10:56:21.020Z,1009.7
2022-08-03T10:57:30.191Z,1009.8
2022-08-03T10:58:38.390Z,1009.7
2022-08-03T10:59:47.558Z,1009.8
2022-08-03T11:00:56.728Z,1009.7
2022-08-03T11:02:05.902Z,1009.7
2022-08-03T11:03:15.078Z,1009.7
2022-08-03T11:04:24.241Z,1009.7
2022-08-03T11:05:33.417Z,1009.7
2022-08-03T11:06:42.582Z,1009.7
2022-08-03T11:07:51.757Z,1009.6
2022-08-03T11:09:00.924Z,1009.6
2022-08-03T11:10:10.126Z,1009.6
2022-08-03T11:11:19.302Z,1009.6
2022-08-03T11:12:28.456Z,1009.6
2022-08-03T11:13:36.645Z,1009.6
2022-08-03T11:14:45.814Z,1009.6
2022-08-03T11:15:54.991Z,1009.5
2022-08-03T11:17:04.166Z,1009.6
2022-08-03T11:18:13.359Z,1009.6
2022-08-03T11:19:22.508Z,1009.5
2022-08-03T11:20:31.668Z,1009.6
2022-08-03T11:21:40.869Z,1009.6
2022-08-03T11:22:50.032Z,1009.5
2022-08-03T11:23:59.203Z,1009.5
2022-08-03T11:25:08.375Z,1009.5
2022-08-03T11:26:17.538Z,1009.5
2022-08-03T11:27:26.727Z,1009.5
2022-08-03T11:28:34.932Z,1009.5
2022-08-03T11:29:44.080Z,1009.4
2022-08-03T11:30:53.241Z,1009.5
2022-08-03T11:32:02.419Z,1009.5
2022-08-03T11:33:11.591Z,1009.5
2022-08-03T11:34:20.755Z,1009.4
2022-08-03T11:35:29.932Z,1009.4
2022-08-03T11:36:39.104Z,1009.5
2022-08-03T11:37:48.310Z,1009.5
2022-08-03T11:38:57.450Z,1009.5
2022-08-03T11:40:06.631Z,1009.5
2022-08-03T11:41:15.803Z,1009.5
2022-08-03T11:42:24.975Z,1009.5
2022-08-03T11:43:33.168Z,1009.5
2022-08-03T11:44:41.359Z,1009.5
2022-08-03T11:45:50.535Z,1009.5
2022-08-03T11:46:58.733Z,1009.4
2022-08-03T11:48:06.936Z,1009.5
2022-08-03T11:49:15.124Z,1009.5
2022-08-03T11:50:24.284Z,1009.5
2022-08-03T11:51:33.451Z,1009.5
2022-08-03T11:52:42.633Z,1009.5
2022-08-03T11:53:51.813Z,1009.5
2022-08-03T11:55:00.959Z,1009.5
2022-08-03T11:56:10.141Z,1009.4
2022-08-03T11:57:19.310Z,1009.5
2022-08-03T11:58:28.487Z,1009.5
2022-08-03T11:59:37.685Z,1009.4
2022-08-03T12:00:46.831Z,1009.5
2022-08-03T12:01:56.001Z,1009.5
2022-08-03T12:03:05.185Z,1009.4
2022-08-03T12:04:13.376Z,1009.5
2022-08-03T12:05:22.549Z,1009.5
2022-08-03T12:06:31.708Z,1009.5
2022-08-03T12:07:40.881Z,1009.4
2022-08-03T12:08:50.060Z,1009.4
2022-08-03T12:09:59.227Z,1009.5
2022-08-03T12:11:07.437Z,1009.4
2022-08-03T12:12:15.607Z,1009.5
2022-08-03T12:13:24.786Z,1009.5
2022-08-03T12:14:32.983Z,1009.4
2022-08-03T12:15:41.178Z,1009.4
2022-08-03T12:16:50.336Z,1009.4
2022-08-03T12:17:59.521Z,1009.4
2022-08-03T12:19:08.705Z,1009.5
2022-08-03T12:20:17.856Z,1009.4
2022-08-03T12:21:27.042Z,1009.4
2022-08-03T12:22:36.218Z,1009.4
2022-08-03T12:23:45.378Z,1009.4
2022-08-03T12:24:54.556Z,1009.3
2022-08-03T12:26:03.734Z,1009.4
2022-08-03T12:27:12.933Z,1009.4
2022-08-03T12:28:22.063Z,1009.4
2022-08-03T12:29:31.251Z,1009.4
2022-08-03T12:30:39.426Z,1009.3
2022-08-03T12:31:48.613Z,1009.4
2022-08-03T12:32:57.786Z,1009.4
2022-08-03T12:34:06.951Z,1009.4
2022-08-03T12:35:16.117Z,1009.4
2022-08-03T12:36:25.292Z,1009.4
2022-08-03T12:37:34.479Z,1009.3
2022-08-03T12:38:43.645Z,1009.3
2022-08-03T12:39:52.826Z,1009.2
2022-08-03T12:41:01.985Z,1009.2
2022-08-03T12:42:11.163Z,1009.2
2022-08-03T12:43:20.329Z,1009.2
2022-08-03T12:44:29.507Z,1009.2
2022-08-03T12:45:37.697Z,1009.2
2022-08-03T12:46:46.873Z,1009.2
2022-08-03T12:47:56.046Z,1009.2
2022-08-03T12:49:05.211Z,1009.2
2022-08-03T12:50:14.391Z,1009.2
2022-08-03T12:51:23.563Z,1009.1
2022-08-03T12:52:32.735Z,1009.1
2022-08-03T12:53:41.903Z,1009.1
2022-08-03T12:54:51.081Z,1009.1
2022-08-03T12:56:00.256Z,1009.2
2022-08-03T12:57:09.444Z,1009.1
2022-08-03T12:58:18.588Z,1009.1
2022-08-03T12:59:27.763Z,1009
2022-08-03T13:00:35.957Z,1009
2022-08-03T13:01:45.133Z,1009
2022-08-03T13:02:54.317Z,1009
2022-08-03T13:04:03.479Z,1009
2022-08-03T13:05:12.658Z,1009.1
2022-08-03T13:06:21.837Z,1009.1
2022-08-03T13:07:30.995Z,1009.1
2022-08-03T13:08:40.193Z,1009.1
2022-08-03T13:09:49.359Z,1009
2022-08-03T13:10:58.514Z,1009.1
2022-08-03T13:12:07.686Z,1009.1
2022-08-03T13:13:16.872Z,1009.1
2022-08-03T13:14:26.046Z,1009.1
2022-08-03T13:15:34.225Z,1009
2022-08-03T13:16:43.411Z,1009
2022-08-03T13:17:52.603Z,1009
2022-08-03T13:19:01.754Z,1009
2022-08-03T13:20:10.916Z,1009
2022-08-03T13:21:20.101Z,1009
2022-08-03T13:22:29.271Z,1009
2022-08-03T13:23:38.438Z,1009.1
2022-08-03T13:24:47.610Z,1009.1
2022-08-03T13:25:56.775Z,1009
2022-08-03T13:27:05.947Z,1009
2022-08-03T13:28:15.161Z,1009
2022-08-03T13:29:24.301Z,1009
2022-08-03T13:31:42.643Z,1008.9
2022-08-03T13:32:50.833Z,1008.9
2022-08-03T13:34:00.003Z,1009
2022-08-03T13:35:09.186Z,1009
2022-08-03T13:36:18.359Z,1009
2022-08-03T13:37:27.539Z,1008.9
2022-08-03T13:38:36.736Z,1008.9
2022-08-03T13:39:45.913Z,1008.9
2022-08-03T13:40:55.091Z,1008.9
2022-08-03T13:42:04.222Z,1009
2022-08-03T13:43:13.413Z,1008.9
2022-08-03T13:44:22.577Z,1009
2022-08-03T13:45:31.764Z,1008.9
2022-08-03T13:46:40.925Z,1008.9
2022-08-03T13:47:49.133Z,1008.9
2022-08-03T13:48:58.287Z,1009
2022-08-03T13:50:07.458Z,1008.9
2022-08-03T13:51:15.653Z,1008.9
2022-08-03T13:52:23.860Z,1008.9
2022-08-03T13:53:32.038Z,1009
2022-08-03T13:54:40.230Z,1008.8
2022-08-03T13:55:49.391Z,1008.8
2022-08-03T13:56:58.569Z,1008.8
2022-08-03T13:58:07.793Z,1008.8
2022-08-03T13:59:16.912Z,1008.8
2022-08-03T14:00:26.086Z,1008.8
2022-08-03T14:01:35.255Z,1008.8
2022-08-03T14:02:44.439Z,1008.9
2022-08-03T14:03:53.609Z,1008.8
2022-08-03T14:05:02.783Z,1008.8
2022-08-03T14:06:11.973Z,1008.9
2022-08-03T14:07:21.127Z,1008.8
2022-08-03T14:08:30.319Z,1008.8
2022-08-03T14:09:38.495Z,1008.7
2022-08-03T14:10:47.671Z,1008.7
2022-08-03T14:11:56.834Z,1008.7
2022-08-03T14:13:06.013Z,1008.6
2022-08-03T14:14:15.181Z,1008.7
2022-08-03T14:15:24.353Z,1008.7
2022-08-03T14:16:33.527Z,1008.7
2022-08-03T14:17:42.697Z,1008.6
2022-08-03T14:18:51.885Z,1008.6
2022-08-03T14:20:01.040Z,1008.6
2022-08-03T14:21:10.224Z,1008.6
2022-08-03T14:22:19.388Z,1008.6
2022-08-03T14:23:28.565Z,1008.5
2022-08-03T14:24:36.747Z,1008.5
2022-08-03T14:25:45.932Z,1008.5
2022-08-03T14:26:55.096Z,1008.6
2022-08-03T14:28:04.263Z,1008.5
2022-08-03T14:29:13.448Z,1008.6
2022-08-03T14:30:22.628Z,1008.5
2022-08-03T14:31:31.795Z,1008.4
2022-08-03T14:32:39.989Z,1008.3